createdAt,value
2017-06-18T00:00:14.476Z,0
2017-06-18T00:01:14.809Z,0
2017-06-18T00:02:14.227Z,0
2017-06-18T00:03:15.123Z,0
2017-06-18T00:04:14.604Z,0
2017-06-18T00:05:14.300Z,0
2017-06-18T00:06:14.337Z,0
2017-06-18T00:07:14.666Z,0
2017-06-18T00:08:15.267Z,0
2017-06-18T00:09:14.420Z,0
2017-06-18T00:10:15.076Z,0
2017-06-18T00:11:14.778Z,0
2017-06-18T00:12:15.127Z,0
2017-06-18T00:13:15.162Z,0
2017-06-18T00:14:15.188Z,0
2017-06-18T00:15:14.925Z,0
2017-06-18T00:16:15.245Z,0
2017-06-18T00:17:14.338Z,0
2017-06-18T00:18:15.248Z,0
2017-06-18T00:19:15.016Z,0
2017-06-18T00:20:14.741Z,0
2017-06-18T00:21:15.073Z,0
2017-06-18T00:22:15.102Z,0
2017-06-18T00:23:15.390Z,0
2017-06-18T00:24:15.468Z,0
2017-06-18T00:25:15.196Z,0
2017-06-18T00:26:14.893Z,0
2017-06-18T00:27:15.571Z,0
2017-06-18T00:28:15.528Z,0
2017-06-18T00:29:15.623Z,0
2017-06-18T00:30:14.715Z,0
2017-06-18T00:31:15.674Z,0
2017-06-18T00:32:15.699Z,0
2017-06-18T00:33:15.680Z,0
2017-06-18T00:34:15.456Z,0
2017-06-18T00:35:15.793Z,0
2017-06-18T00:36:15.813Z,0
2017-06-18T00:37:15.856Z,0
2017-06-18T00:38:15.814Z,0
2017-06-18T00:39:15.614Z,0
2017-06-18T00:40:15.617Z,0
2017-06-18T00:41:15.649Z,0
2017-06-18T00:42:15.369Z,0
2017-06-18T00:43:15.968Z,0
2017-06-18T00:44:15.736Z,0
2017-06-18T00:45:15.771Z,0
2017-06-18T00:46:15.800Z,0
2017-06-18T00:47:15.512Z,0
2017-06-18T00:48:16.167Z,0
2017-06-18T00:49:15.883Z,0
2017-06-18T00:50:15.907Z,0
2017-06-18T00:51:15.937Z,0
2017-06-18T00:52:15.976Z,0
2017-06-18T00:53:16.251Z,0
2017-06-18T00:54:16.028Z,0
2017-06-18T00:55:16.053Z,0
2017-06-18T00:56:16.385Z,0
2017-06-18T00:57:16.422Z,0
2017-06-18T00:58:16.454Z,0
2017-06-18T00:59:16.484Z,0
2017-06-18T01:00:16.500Z,0
2017-06-18T01:01:16.230Z,0
2017-06-18T01:02:16.562Z,0
2017-06-18T01:03:16.223Z,0
2017-06-18T01:04:15.678Z,0
2017-06-18T01:05:16.652Z,0
2017-06-18T01:06:16.705Z,0
2017-06-18T01:07:16.407Z,0
2017-06-18T01:08:16.671Z,0
2017-06-18T01:09:16.459Z,0
2017-06-18T01:10:15.854Z,0
2017-06-18T01:11:16.546Z,0
2017-06-18T01:12:16.859Z,0
2017-06-18T01:13:16.884Z,0
2017-06-18T01:14:16.599Z,0
2017-06-18T01:15:16.943Z,0
2017-06-18T01:16:16.654Z,0
2017-06-18T01:17:17.010Z,0
2017-06-18T01:18:16.963Z,0
2017-06-18T01:19:16.743Z,0
2017-06-18T01:20:17.072Z,0
2017-06-18T01:21:15.865Z,0
2017-06-18T01:22:17.146Z,0
2017-06-18T01:23:16.858Z,0
2017-06-18T01:24:16.885Z,0
2017-06-18T01:25:17.234Z,0
2017-06-18T01:26:17.257Z,0
2017-06-18T01:27:17.282Z,0
2017-06-18T01:28:16.938Z,0
2017-06-18T01:29:17.056Z,0
2017-06-18T01:30:16.749Z,0
2017-06-18T01:31:17.086Z,0
2017-06-18T01:32:16.795Z,0
2017-06-18T01:33:16.830Z,0
2017-06-18T01:34:17.480Z,0
2017-06-18T01:35:17.208Z,0
2017-06-18T01:36:17.234Z,0
2017-06-18T01:37:17.264Z,0
2017-06-18T01:38:17.855Z,0
2017-06-18T01:39:17.636Z,0
2017-06-18T01:40:17.664Z,0
2017-06-18T01:41:17.385Z,0
2017-06-18T01:42:17.709Z,0
2017-06-18T01:43:18.000Z,0
2017-06-18T01:44:17.780Z,0
2017-06-18T01:45:17.804Z,0
2017-06-18T01:46:17.209Z,0
2017-06-18T01:47:17.862Z,0
2017-06-18T01:48:18.139Z,0
2017-06-18T01:49:17.911Z,0
2017-06-18T01:50:17.960Z,0
2017-06-18T01:51:17.969Z,0
2017-06-18T01:52:17.691Z,0
2017-06-18T01:53:18.026Z,0
2017-06-18T01:54:17.744Z,0
2017-06-18T01:55:17.781Z,0
2017-06-18T01:56:17.487Z,0
2017-06-18T01:57:18.145Z,0
2017-06-18T01:58:18.177Z,0
2017-06-18T01:59:17.584Z,0
2017-06-18T02:00:17.921Z,0
2017-06-18T02:01:18.263Z,0
2017-06-18T02:02:17.661Z,0
2017-06-18T02:03:18.259Z,0
2017-06-18T02:04:18.350Z,0
2017-06-18T02:05:18.064Z,0
2017-06-18T02:06:18.089Z,0
2017-06-18T02:07:18.118Z,0
2017-06-18T02:08:18.150Z,0
2017-06-18T02:09:18.503Z,0
2017-06-18T02:10:18.212Z,0
2017-06-18T02:11:17.609Z,0
2017-06-18T02:12:17.945Z,0
2017-06-18T02:13:18.863Z,0
2017-06-18T02:14:18.327Z,0
2017-06-18T02:15:18.031Z,0
2017-06-18T02:16:18.693Z,0
2017-06-18T02:17:18.717Z,0
2017-06-18T02:18:18.745Z,0
2017-06-18T02:19:18.771Z,0
2017-06-18T02:20:18.492Z,0
2017-06-18T02:21:17.896Z,0
2017-06-18T02:22:18.553Z,0
2017-06-18T02:23:18.202Z,0
2017-06-18T02:24:18.610Z,0
2017-06-18T02:25:18.631Z,0
2017-06-18T02:26:18.357Z,0
2017-06-18T02:27:18.702Z,0
2017-06-18T02:28:19.030Z,0
2017-06-18T02:29:18.759Z,0
2017-06-18T02:30:18.464Z,0
2017-06-18T02:31:18.817Z,0
2017-06-18T02:32:18.525Z,0
2017-06-18T02:33:19.426Z,0
2017-06-18T02:34:18.587Z,0
2017-06-18T02:35:18.610Z,0
2017-06-18T02:36:19.270Z,0
2017-06-18T02:37:19.294Z,0
2017-06-18T02:38:19.259Z,0
2017-06-18T02:39:19.042Z,0
2017-06-18T02:40:19.385Z,0
2017-06-18T02:41:19.418Z,0
2017-06-18T02:42:19.441Z,0
2017-06-18T02:43:19.718Z,0
2017-06-18T02:44:19.181Z,0
2017-06-18T02:45:19.208Z,0
2017-06-18T02:46:19.239Z,0
2017-06-18T02:47:19.587Z,0
2017-06-18T02:48:19.855Z,0
2017-06-18T02:49:19.004Z,0
2017-06-18T02:50:19.356Z,0
2017-06-18T02:51:19.697Z,0
2017-06-18T02:52:19.718Z,0
2017-06-18T02:53:19.755Z,0
2017-06-18T02:54:19.399Z,0
2017-06-18T02:55:19.497Z,0
2017-06-18T02:56:19.829Z,0
2017-06-18T02:57:19.866Z,0
2017-06-18T02:58:19.589Z,0
2017-06-18T02:59:19.909Z,0
2017-06-18T03:00:19.323Z,0
2017-06-18T03:01:19.689Z,0
2017-06-18T03:02:19.695Z,0
2017-06-18T03:03:19.722Z,0
2017-06-18T03:04:20.318Z,0
2017-06-18T03:05:20.083Z,0
2017-06-18T03:06:20.119Z,0
2017-06-18T03:07:19.841Z,0
2017-06-18T03:08:20.179Z,0
2017-06-18T03:09:20.470Z,0
2017-06-18T03:10:20.255Z,0
2017-06-18T03:11:19.648Z,0
2017-06-18T03:12:20.294Z,0
2017-06-18T03:13:19.698Z,0
2017-06-18T03:14:20.357Z,0
2017-06-18T03:15:20.389Z,0
2017-06-18T03:16:19.789Z,0
2017-06-18T03:17:20.440Z,0
2017-06-18T03:18:20.510Z,0
2017-06-18T03:19:20.751Z,0
2017-06-18T03:20:20.204Z,0
2017-06-18T03:21:20.241Z,0
2017-06-18T03:22:20.274Z,0
2017-06-18T03:23:20.614Z,0
2017-06-18T03:24:20.895Z,0
2017-06-18T03:25:20.047Z,0
2017-06-18T03:26:20.393Z,0
2017-06-18T03:27:20.414Z,0
2017-06-18T03:28:20.126Z,0
2017-06-18T03:29:20.462Z,0
2017-06-18T03:30:20.500Z,0
2017-06-18T03:31:20.841Z,0
2017-06-18T03:32:20.877Z,0
2017-06-18T03:33:20.274Z,0
2017-06-18T03:34:20.865Z,0
2017-06-18T03:35:20.963Z,0
2017-06-18T03:36:20.362Z,0
2017-06-18T03:37:20.694Z,0
2017-06-18T03:38:20.726Z,0
2017-06-18T03:39:21.319Z,0
2017-06-18T03:40:20.483Z,0
2017-06-18T03:41:21.157Z,0
2017-06-18T03:42:20.839Z,0
2017-06-18T03:43:21.178Z,0
2017-06-18T03:44:21.468Z,0
2017-06-18T03:45:20.932Z,0
2017-06-18T03:46:20.948Z,0
2017-06-18T03:47:20.686Z,0
2017-06-18T03:48:21.009Z,0
2017-06-18T03:49:21.604Z,0
2017-06-18T03:50:21.068Z,0
2017-06-18T03:51:21.416Z,0
2017-06-18T03:52:21.440Z,0
2017-06-18T03:53:21.163Z,0
2017-06-18T03:54:21.505Z,0
2017-06-18T03:55:21.220Z,0
2017-06-18T03:56:21.574Z,0
2017-06-18T03:57:21.584Z,0
2017-06-18T03:58:21.618Z,0
2017-06-18T03:59:21.599Z,0
2017-06-18T04:00:21.047Z,0
2017-06-18T04:01:21.393Z,0
2017-06-18T04:02:21.734Z,0
2017-06-18T04:03:21.158Z,0
2017-06-18T04:04:22.031Z,0
2017-06-18T04:05:21.829Z,0
2017-06-18T04:06:21.841Z,0
2017-06-18T04:07:21.565Z,0
2017-06-18T04:08:21.906Z,0
2017-06-18T04:09:21.543Z,0
2017-06-18T04:10:21.632Z,0
2017-06-18T04:11:21.364Z,0
2017-06-18T04:12:22.030Z,0
2017-06-18T04:13:21.722Z,0
2017-06-18T04:14:21.700Z,0
2017-06-18T04:15:22.100Z,0
2017-06-18T04:16:21.489Z,0
2017-06-18T04:17:21.225Z,0
2017-06-18T04:18:21.586Z,0
2017-06-18T04:19:22.142Z,0
2017-06-18T04:20:22.258Z,0
2017-06-18T04:21:21.649Z,0
2017-06-18T04:22:21.993Z,0
2017-06-18T04:23:21.716Z,0
2017-06-18T04:24:22.299Z,0
2017-06-18T04:25:22.389Z,0
2017-06-18T04:26:22.143Z,0
2017-06-18T04:27:21.826Z,0
2017-06-18T04:28:21.534Z,0
2017-06-18T04:29:22.179Z,5
2017-06-18T04:30:22.225Z,5
2017-06-18T04:31:21.929Z,0
2017-06-18T04:32:22.281Z,5
2017-06-18T04:33:21.990Z,5
2017-06-18T04:34:22.583Z,5
2017-06-18T04:35:22.672Z,5
2017-06-18T04:36:22.401Z,5
2017-06-18T04:37:21.792Z,5
2017-06-18T04:38:22.130Z,5
2017-06-18T04:39:22.785Z,5
2017-06-18T04:40:22.819Z,5
2017-06-18T04:41:22.528Z,5
2017-06-18T04:42:22.566Z,5
2017-06-18T04:43:22.910Z,5
2017-06-18T04:44:22.870Z,5
2017-06-18T04:45:22.654Z,5
2017-06-18T04:46:22.992Z,5
2017-06-18T04:47:23.017Z,5
2017-06-18T04:48:22.726Z,5
2017-06-18T04:49:22.692Z,5
2017-06-18T04:50:23.104Z,5
2017-06-18T04:51:22.820Z,5
2017-06-18T04:52:23.166Z,5
2017-06-18T04:53:22.875Z,5
2017-06-18T04:54:23.466Z,5
2017-06-18T04:55:23.240Z,5
2017-06-18T04:56:22.962Z,5
2017-06-18T04:57:22.998Z,5
2017-06-18T04:58:23.014Z,5
2017-06-18T04:59:23.302Z,5
2017-06-18T05:00:23.395Z,5
2017-06-18T05:01:23.109Z,5
2017-06-18T05:02:23.145Z,5
2017-06-18T05:03:23.170Z,5
2017-06-18T05:04:23.119Z,5
2017-06-18T05:05:23.540Z,5
2017-06-18T05:06:23.257Z,5
2017-06-18T05:07:23.310Z,5
2017-06-18T05:08:22.994Z,5
2017-06-18T05:09:23.342Z,10
2017-06-18T05:10:23.364Z,10
2017-06-18T05:11:23.708Z,10
2017-06-18T05:12:23.109Z,10
2017-06-18T05:13:23.750Z,10
2017-06-18T05:14:23.410Z,5
2017-06-18T05:15:23.199Z,5
2017-06-18T05:16:23.845Z,10
2017-06-18T05:17:23.561Z,5
2017-06-18T05:18:23.906Z,5
2017-06-18T05:19:23.874Z,10
2017-06-18T05:20:23.965Z,10
2017-06-18T05:21:23.993Z,10
2017-06-18T05:22:23.385Z,10
2017-06-18T05:23:24.050Z,10
2017-06-18T05:24:24.018Z,10
2017-06-18T05:25:23.800Z,10
2017-06-18T05:26:24.133Z,10
2017-06-18T05:27:24.161Z,15
2017-06-18T05:28:23.890Z,15
2017-06-18T05:29:23.848Z,10
2017-06-18T05:30:23.320Z,15
2017-06-18T05:31:23.973Z,15
2017-06-18T05:32:24.313Z,10
2017-06-18T05:33:24.026Z,10
2017-06-18T05:34:24.614Z,10
2017-06-18T05:35:24.084Z,15
2017-06-18T05:36:24.120Z,10
2017-06-18T05:37:24.150Z,10
2017-06-18T05:38:24.484Z,10
2017-06-18T05:39:24.133Z,10
2017-06-18T05:40:24.540Z,10
2017-06-18T05:41:23.938Z,10
2017-06-18T05:42:24.289Z,10
2017-06-18T05:43:24.622Z,10
2017-06-18T05:44:24.590Z,10
2017-06-18T05:45:24.367Z,10
2017-06-18T05:46:24.087Z,10
2017-06-18T05:47:24.113Z,10
2017-06-18T05:48:24.457Z,10
2017-06-18T05:49:25.042Z,10
2017-06-18T05:50:24.823Z,10
2017-06-18T05:51:24.848Z,10
2017-06-18T05:52:24.573Z,15
2017-06-18T05:53:24.593Z,15
2017-06-18T05:54:25.194Z,15
2017-06-18T05:55:24.655Z,15
2017-06-18T05:56:24.376Z,15
2017-06-18T05:57:25.033Z,15
2017-06-18T05:58:24.433Z,15
2017-06-18T05:59:24.766Z,15
2017-06-18T06:00:25.055Z,15
2017-06-18T06:01:24.824Z,15
2017-06-18T06:02:24.541Z,15
2017-06-18T06:03:24.885Z,15
2017-06-18T06:04:24.914Z,15
2017-06-18T06:05:25.508Z,15
2017-06-18T06:06:24.972Z,20
2017-06-18T06:07:24.681Z,20
2017-06-18T06:08:25.370Z,15
2017-06-18T06:09:25.361Z,20
2017-06-18T06:10:25.643Z,20
2017-06-18T06:11:25.424Z,20
2017-06-18T06:12:25.465Z,20
2017-06-18T06:13:25.174Z,20
2017-06-18T06:14:25.195Z,20
2017-06-18T06:15:25.220Z,20
2017-06-18T06:16:25.569Z,15
2017-06-18T06:17:25.597Z,15
2017-06-18T06:18:25.310Z,15
2017-06-18T06:19:25.655Z,15
2017-06-18T06:20:25.631Z,20
2017-06-18T06:21:25.113Z,20
2017-06-18T06:22:25.121Z,15
2017-06-18T06:23:25.462Z,15
2017-06-18T06:24:25.815Z,15
2017-06-18T06:25:25.767Z,15
2017-06-18T06:26:25.867Z,20
2017-06-18T06:27:25.574Z,20
2017-06-18T06:28:25.919Z,20
2017-06-18T06:29:25.633Z,20
2017-06-18T06:30:25.916Z,20
2017-06-18T06:31:25.700Z,20
2017-06-18T06:32:25.724Z,20
2017-06-18T06:33:26.062Z,15
2017-06-18T06:34:25.465Z,15
2017-06-18T06:35:26.064Z,15
2017-06-18T06:36:25.840Z,15
2017-06-18T06:37:25.857Z,15
2017-06-18T06:38:26.198Z,15
2017-06-18T06:39:25.925Z,15
2017-06-18T06:40:25.944Z,15
2017-06-18T06:41:26.288Z,15
2017-06-18T06:42:26.035Z,15
2017-06-18T06:43:26.027Z,15
2017-06-18T06:44:26.067Z,15
2017-06-18T06:45:26.104Z,15
2017-06-18T06:46:26.124Z,15
2017-06-18T06:47:26.464Z,15
2017-06-18T06:48:26.492Z,15
2017-06-18T06:49:26.218Z,15
2017-06-18T06:50:26.487Z,15
2017-06-18T06:51:26.588Z,15
2017-06-18T06:52:26.292Z,15
2017-06-18T06:53:26.015Z,15
2017-06-18T06:54:26.358Z,15
2017-06-18T06:55:26.389Z,15
2017-06-18T06:56:26.728Z,15
2017-06-18T06:57:26.756Z,15
2017-06-18T06:58:26.789Z,15
2017-06-18T06:59:26.190Z,15
2017-06-18T07:00:26.535Z,15
2017-06-18T07:01:26.561Z,15
2017-06-18T07:02:26.893Z,15
2017-06-18T07:03:26.932Z,15
2017-06-18T07:04:26.950Z,15
2017-06-18T07:05:26.675Z,15
2017-06-18T07:06:27.016Z,15
2017-06-18T07:07:26.725Z,15
2017-06-18T07:08:26.757Z,15
2017-06-18T07:09:26.165Z,15
2017-06-18T07:10:27.380Z,15
2017-06-18T07:11:27.161Z,15
2017-06-18T07:12:26.873Z,15
2017-06-18T07:13:26.909Z,20
2017-06-18T07:14:27.247Z,20
2017-06-18T07:15:26.963Z,20
2017-06-18T07:16:26.993Z,20
2017-06-18T07:17:26.711Z,15
2017-06-18T07:18:27.051Z,20
2017-06-18T07:19:27.390Z,20
2017-06-18T07:20:27.356Z,20
2017-06-18T07:21:27.136Z,25
2017-06-18T07:22:27.481Z,30
2017-06-18T07:23:27.501Z,35
2017-06-18T07:24:27.234Z,20
2017-06-18T07:25:27.816Z,20
2017-06-18T07:26:27.596Z,20
2017-06-18T07:27:27.321Z,25
2017-06-18T07:28:27.652Z,30
2017-06-18T07:29:27.382Z,40
2017-06-18T07:30:27.967Z,35
2017-06-18T07:31:27.437Z,30
2017-06-18T07:32:27.460Z,30
2017-06-18T07:33:27.798Z,25
2017-06-18T07:34:27.822Z,25
2017-06-18T07:35:28.108Z,30
2017-06-18T07:36:27.916Z,25
2017-06-18T07:37:27.900Z,20
2017-06-18T07:38:27.323Z,20
2017-06-18T07:39:27.033Z,20
2017-06-18T07:40:27.627Z,20
2017-06-18T07:41:27.725Z,20
2017-06-18T07:42:27.434Z,20
2017-06-18T07:43:28.085Z,15
2017-06-18T07:44:28.123Z,15
2017-06-18T07:45:27.523Z,20
2017-06-18T07:46:27.867Z,20
2017-06-18T07:47:27.892Z,25
2017-06-18T07:48:28.224Z,35
2017-06-18T07:49:27.950Z,30
2017-06-18T07:50:28.227Z,30
2017-06-18T07:51:27.704Z,25
2017-06-18T07:52:28.044Z,20
2017-06-18T07:53:28.057Z,20
2017-06-18T07:54:27.791Z,20
2017-06-18T07:55:28.368Z,20
2017-06-18T07:56:28.471Z,15
2017-06-18T07:57:27.881Z,20
2017-06-18T07:58:28.529Z,20
2017-06-18T07:59:28.234Z,20
2017-06-18T08:00:28.527Z,35
2017-06-18T08:01:27.984Z,20
2017-06-18T08:02:28.332Z,35
2017-06-18T08:03:28.360Z,25
2017-06-18T08:04:28.393Z,20
2017-06-18T08:05:28.986Z,20
2017-06-18T08:06:28.760Z,20
2017-06-18T08:07:28.784Z,25
2017-06-18T08:08:28.504Z,35
2017-06-18T08:09:28.846Z,20
2017-06-18T08:10:28.247Z,25
2017-06-18T08:11:28.844Z,30
2017-06-18T08:12:28.613Z,35
2017-06-18T08:13:28.965Z,35
2017-06-18T08:14:28.995Z,40
2017-06-18T08:15:28.394Z,25
2017-06-18T08:16:28.741Z,25
2017-06-18T08:17:28.769Z,20
2017-06-18T08:18:29.106Z,20
2017-06-18T08:19:28.851Z,20
2017-06-18T08:20:28.856Z,20
2017-06-18T08:21:29.448Z,20
2017-06-18T08:22:29.220Z,20
2017-06-18T08:23:28.633Z,20
2017-06-18T08:24:28.962Z,20
2017-06-18T08:25:29.002Z,20
2017-06-18T08:26:28.719Z,20
2017-06-18T08:27:29.064Z,20
2017-06-18T08:28:28.777Z,20
2017-06-18T08:29:29.113Z,20
2017-06-18T08:30:28.840Z,20
2017-06-18T08:31:29.427Z,20
2017-06-18T08:32:29.516Z,20
2017-06-18T08:33:29.553Z,20
2017-06-18T08:34:29.257Z,20
2017-06-18T08:35:29.296Z,20
2017-06-18T08:36:29.892Z,20
2017-06-18T08:37:28.715Z,20
2017-06-18T08:38:29.065Z,25
2017-06-18T08:39:29.721Z,25
2017-06-18T08:40:29.131Z,30
2017-06-18T08:41:29.466Z,35
2017-06-18T08:42:29.809Z,30
2017-06-18T08:43:29.521Z,20
2017-06-18T08:44:29.560Z,35
2017-06-18T08:45:29.592Z,40
2017-06-18T08:46:29.554Z,40
2017-06-18T08:47:29.959Z,35
2017-06-18T08:48:29.362Z,30
2017-06-18T08:49:30.009Z,25
2017-06-18T08:50:29.414Z,30
2017-06-18T08:51:29.763Z,30
2017-06-18T08:52:29.790Z,40
2017-06-18T08:53:29.825Z,40
2017-06-18T08:54:30.157Z,40
2017-06-18T08:55:30.194Z,30
2017-06-18T08:56:29.846Z,35
2017-06-18T08:57:29.928Z,30
2017-06-18T08:58:29.964Z,30
2017-06-18T08:59:29.993Z,30
2017-06-18T09:00:30.339Z,30
2017-06-18T09:01:30.051Z,35
2017-06-18T09:02:30.395Z,35
2017-06-18T09:03:30.105Z,30
2017-06-18T09:04:30.450Z,25
2017-06-18T09:05:30.171Z,25
2017-06-18T09:06:29.575Z,25
2017-06-18T09:07:30.224Z,30
2017-06-18T09:08:30.257Z,25
2017-06-18T09:09:30.609Z,25
2017-06-18T09:10:30.006Z,25
2017-06-18T09:11:29.966Z,20
2017-06-18T09:12:30.687Z,25
2017-06-18T09:13:30.093Z,30
2017-06-18T09:14:30.434Z,30
2017-06-18T09:15:30.469Z,25
2017-06-18T09:16:30.735Z,20
2017-06-18T09:17:30.836Z,25
2017-06-18T09:18:30.869Z,25
2017-06-18T09:19:30.311Z,30
2017-06-18T09:20:30.289Z,40
2017-06-18T09:21:30.638Z,45
2017-06-18T09:22:30.358Z,45
2017-06-18T09:23:30.376Z,40
2017-06-18T09:24:30.409Z,40
2017-06-18T09:25:31.075Z,35
2017-06-18T09:26:31.351Z,30
2017-06-18T09:27:31.144Z,25
2017-06-18T09:28:30.844Z,25
2017-06-18T09:29:31.194Z,25
2017-06-18T09:30:31.223Z,35
2017-06-18T09:31:31.503Z,45
2017-06-18T09:32:31.284Z,50
2017-06-18T09:33:31.013Z,55
2017-06-18T09:34:31.338Z,60
2017-06-18T09:35:31.354Z,60
2017-06-18T09:36:30.763Z,55
2017-06-18T09:37:31.367Z,50
2017-06-18T09:38:31.149Z,50
2017-06-18T09:39:31.162Z,45
2017-06-18T09:40:31.505Z,40
2017-06-18T09:41:31.235Z,45
2017-06-18T09:42:31.512Z,35
2017-06-18T09:43:31.289Z,45
2017-06-18T09:44:31.005Z,50
2017-06-18T09:45:31.658Z,50
2017-06-18T09:46:31.682Z,45
2017-06-18T09:47:31.647Z,50
2017-06-18T09:48:31.429Z,50
2017-06-18T09:49:31.485Z,50
2017-06-18T09:50:31.486Z,40
2017-06-18T09:51:31.528Z,35
2017-06-18T09:52:32.111Z,30
2017-06-18T09:53:31.891Z,25
2017-06-18T09:54:31.932Z,30
2017-06-18T09:55:31.959Z,30
2017-06-18T09:56:31.985Z,25
2017-06-18T09:57:32.261Z,30
2017-06-18T09:58:31.720Z,35
2017-06-18T09:59:32.068Z,60
2017-06-18T10:00:31.790Z,65
2017-06-18T10:01:31.507Z,45
2017-06-18T10:02:31.464Z,60
2017-06-18T10:03:31.871Z,75
2017-06-18T10:04:31.902Z,60
2017-06-18T10:05:31.942Z,55
2017-06-18T10:06:32.283Z,60
2017-06-18T10:07:32.236Z,55
2017-06-18T10:08:32.020Z,45
2017-06-18T10:09:32.371Z,40
2017-06-18T10:10:32.085Z,50
2017-06-18T10:11:32.427Z,70
2017-06-18T10:12:32.085Z,60
2017-06-18T10:13:31.861Z,50
2017-06-18T10:14:31.577Z,55
2017-06-18T10:15:32.250Z,55
2017-06-18T10:16:32.264Z,65
2017-06-18T10:17:32.292Z,55
2017-06-18T10:18:32.632Z,50
2017-06-18T10:19:32.354Z,50
2017-06-18T10:20:32.059Z,45
2017-06-18T10:21:32.711Z,35
2017-06-18T10:22:32.992Z,35
2017-06-18T10:23:32.475Z,30
2017-06-18T10:24:32.494Z,35
2017-06-18T10:25:32.526Z,40
2017-06-18T10:26:32.898Z,50
2017-06-18T10:27:32.585Z,80
2017-06-18T10:28:32.621Z,65
2017-06-18T10:29:32.342Z,55
2017-06-18T10:30:32.670Z,40
2017-06-18T10:31:33.018Z,40
2017-06-18T10:32:33.305Z,40
2017-06-18T10:33:32.768Z,40
2017-06-18T10:34:33.129Z,40
2017-06-18T10:35:33.135Z,35
2017-06-18T10:36:33.171Z,35
2017-06-18T10:37:33.196Z,35
2017-06-18T10:38:32.908Z,35
2017-06-18T10:39:32.620Z,55
2017-06-18T10:40:33.281Z,80
2017-06-18T10:41:33.327Z,70
2017-06-18T10:42:33.040Z,50
2017-06-18T10:43:33.370Z,75
2017-06-18T10:44:33.085Z,70
2017-06-18T10:45:33.435Z,80
2017-06-18T10:46:33.153Z,85
2017-06-18T10:47:33.204Z,90
2017-06-18T10:48:33.525Z,85
2017-06-18T10:49:33.547Z,80
2017-06-18T10:50:33.261Z,75
2017-06-18T10:51:33.603Z,60
2017-06-18T10:52:33.891Z,50
2017-06-18T10:53:33.037Z,60
2017-06-18T10:54:33.062Z,70
2017-06-18T10:55:33.415Z,75
2017-06-18T10:56:33.131Z,55
2017-06-18T10:57:33.783Z,60
2017-06-18T10:58:33.193Z,55
2017-06-18T10:59:33.215Z,40
2017-06-18T11:00:33.294Z,45
2017-06-18T11:01:33.911Z,40
2017-06-18T11:02:33.617Z,40
2017-06-18T11:03:34.226Z,45
2017-06-18T11:04:33.374Z,60
2017-06-18T11:05:33.724Z,55
2017-06-18T11:06:34.055Z,50
2017-06-18T11:07:33.783Z,75
2017-06-18T11:08:34.108Z,60
2017-06-18T11:09:33.833Z,50
2017-06-18T11:10:34.174Z,45
2017-06-18T11:11:33.896Z,40
2017-06-18T11:12:33.925Z,45
2017-06-18T11:13:34.265Z,65
2017-06-18T11:14:33.669Z,50
2017-06-18T11:15:34.322Z,40
2017-06-18T11:16:33.415Z,45
2017-06-18T11:17:34.387Z,45
2017-06-18T11:18:34.033Z,75
2017-06-18T11:19:34.455Z,90
2017-06-18T11:20:34.465Z,75
2017-06-18T11:21:34.503Z,75
2017-06-18T11:22:34.229Z,65
2017-06-18T11:23:34.568Z,70
2017-06-18T11:24:34.581Z,85
2017-06-18T11:25:34.646Z,115
2017-06-18T11:26:34.660Z,110
2017-06-18T11:27:34.688Z,120
2017-06-18T11:28:34.713Z,95
2017-06-18T11:29:34.429Z,150
2017-06-18T11:30:34.466Z,95
2017-06-18T11:31:34.183Z,530
2017-06-18T11:32:34.213Z,470
2017-06-18T11:33:34.801Z,420
2017-06-18T11:34:34.890Z,415
2017-06-18T11:35:34.615Z,395
2017-06-18T11:36:34.636Z,400
2017-06-18T11:37:34.975Z,430
2017-06-18T11:38:34.701Z,425
2017-06-18T11:39:34.734Z,460
2017-06-18T11:40:34.779Z,495
2017-06-18T11:41:35.104Z,495
2017-06-18T11:42:35.140Z,550
2017-06-18T11:43:34.813Z,560
2017-06-18T11:44:34.886Z,630
2017-06-18T11:45:35.234Z,670
2017-06-18T11:46:35.255Z,415
2017-06-18T11:47:34.660Z,930
2017-06-18T11:48:35.316Z,870
2017-06-18T11:49:35.043Z,860
2017-06-18T11:50:35.079Z,945
2017-06-18T11:51:35.105Z,1030
2017-06-18T11:52:35.135Z,1200
2017-06-18T11:53:35.420Z,1325
2017-06-18T11:54:35.194Z,410
2017-06-18T11:55:34.615Z,145
2017-06-18T11:56:35.259Z,915
2017-06-18T11:57:34.988Z,1025
2017-06-18T11:58:35.317Z,965
2017-06-18T11:59:35.674Z,985
2017-06-18T12:00:35.706Z,945
2017-06-18T12:01:35.735Z,770
2017-06-18T12:02:35.164Z,710
2017-06-18T12:03:36.053Z,625
2017-06-18T12:04:35.834Z,585
2017-06-18T12:05:35.878Z,255
2017-06-18T12:06:35.276Z,745
2017-06-18T12:07:35.316Z,680
2017-06-18T12:08:35.642Z,710
2017-06-18T12:09:35.381Z,715
2017-06-18T12:10:35.726Z,735
2017-06-18T12:11:36.067Z,810
2017-06-18T12:12:35.800Z,790
2017-06-18T12:13:36.149Z,745
2017-06-18T12:14:35.858Z,975
2017-06-18T12:15:35.893Z,965
2017-06-18T12:16:35.618Z,825
2017-06-18T12:17:35.961Z,640
2017-06-18T12:18:36.303Z,520
2017-06-18T12:19:36.018Z,570
2017-06-18T12:20:36.063Z,855
2017-06-18T12:21:35.789Z,845
2017-06-18T12:22:36.440Z,780
2017-06-18T12:23:36.161Z,985
2017-06-18T12:24:36.506Z,1090
2017-06-18T12:25:35.923Z,1145
2017-06-18T12:26:36.579Z,1095
2017-06-18T12:27:36.304Z,930
2017-06-18T12:28:36.342Z,905
2017-06-18T12:29:36.376Z,980
2017-06-18T12:30:36.726Z,810
2017-06-18T12:31:36.431Z,910
2017-06-18T12:32:36.476Z,885
2017-06-18T12:33:36.510Z,1095
2017-06-18T12:34:36.226Z,1180
2017-06-18T12:35:36.579Z,1095
2017-06-18T12:36:36.928Z,980
2017-06-18T12:37:36.636Z,930
2017-06-18T12:38:37.000Z,1150
2017-06-18T12:39:36.727Z,1125
2017-06-18T12:40:37.058Z,1060
2017-06-18T12:41:36.480Z,1025
2017-06-18T12:42:37.133Z,980
2017-06-18T12:43:37.418Z,935
2017-06-18T12:44:37.207Z,970
2017-06-18T12:45:36.615Z,935
2017-06-18T12:46:36.952Z,1000
2017-06-18T12:47:37.308Z,930
2017-06-18T12:48:37.341Z,940
2017-06-18T12:49:37.381Z,1015
2017-06-18T12:50:37.418Z,1020
2017-06-18T12:51:37.168Z,960
2017-06-18T12:52:37.179Z,1015
2017-06-18T12:53:37.521Z,810
2017-06-18T12:54:37.554Z,925
2017-06-18T12:55:37.279Z,910
2017-06-18T12:56:37.311Z,885
2017-06-18T12:57:37.690Z,955
2017-06-18T12:58:37.635Z,1010
2017-06-18T12:59:37.101Z,995
2017-06-18T13:00:37.758Z,970
2017-06-18T13:01:37.495Z,1270
2017-06-18T13:02:37.844Z,1375
2017-06-18T13:03:37.561Z,1215
2017-06-18T13:04:37.905Z,1105
2017-06-18T13:05:37.642Z,815
2017-06-18T13:06:37.671Z,485
2017-06-18T13:07:38.013Z,240
2017-06-18T13:08:38.000Z,205
2017-06-18T13:09:37.785Z,195
2017-06-18T13:10:38.114Z,195
2017-06-18T13:11:37.535Z,185
2017-06-18T13:12:37.876Z,180
2017-06-18T13:13:36.968Z,180
2017-06-18T13:14:37.646Z,185
2017-06-18T13:15:37.670Z,190
2017-06-18T13:16:38.328Z,180
2017-06-18T13:17:37.739Z,175
2017-06-18T13:18:38.399Z,170
2017-06-18T13:19:38.449Z,180
2017-06-18T13:20:38.472Z,220
2017-06-18T13:21:38.512Z,205
2017-06-18T13:22:38.245Z,225
2017-06-18T13:23:38.864Z,145
2017-06-18T13:24:38.622Z,110
2017-06-18T13:25:38.018Z,115
2017-06-18T13:26:38.675Z,170
2017-06-18T13:27:38.729Z,160
2017-06-18T13:28:38.446Z,160
2017-06-18T13:29:38.786Z,150
2017-06-18T13:30:38.818Z,145
2017-06-18T13:31:38.861Z,140
2017-06-18T13:32:38.891Z,135
2017-06-18T13:33:38.934Z,130
2017-06-18T13:34:38.351Z,130
2017-06-18T13:35:38.994Z,125
2017-06-18T13:36:38.401Z,125
2017-06-18T13:37:38.752Z,125
2017-06-18T13:38:39.052Z,125
2017-06-18T13:39:39.135Z,125
2017-06-18T13:40:38.575Z,120
2017-06-18T13:41:38.895Z,120
2017-06-18T13:42:38.928Z,145
2017-06-18T13:43:39.212Z,145
2017-06-18T13:44:38.998Z,90
2017-06-18T13:45:39.347Z,130
2017-06-18T13:46:39.067Z,130
2017-06-18T13:47:39.108Z,145
2017-06-18T13:48:39.701Z,145
2017-06-18T13:49:38.861Z,55
2017-06-18T13:50:39.203Z,40
2017-06-18T13:51:39.243Z,120
2017-06-18T13:52:39.269Z,115
2017-06-18T13:53:39.304Z,140
2017-06-18T13:54:39.653Z,80
2017-06-18T13:55:39.395Z,105
2017-06-18T13:56:39.728Z,110
2017-06-18T13:57:39.757Z,110
2017-06-18T13:58:39.482Z,105
2017-06-18T13:59:39.507Z,110
2017-06-18T14:00:39.582Z,110
2017-06-18T14:01:39.579Z,95
2017-06-18T14:02:39.621Z,100
2017-06-18T14:03:39.897Z,100
2017-06-18T14:04:39.999Z,100
2017-06-18T14:05:40.035Z,100
2017-06-18T14:06:40.066Z,100
2017-06-18T14:07:40.091Z,110
2017-06-18T14:08:40.069Z,110
2017-06-18T14:09:40.162Z,100
2017-06-18T14:10:39.579Z,105
2017-06-18T14:11:40.231Z,105
2017-06-18T14:12:39.957Z,95
2017-06-18T14:13:39.362Z,100
2017-06-18T14:14:40.581Z,100
2017-06-18T14:15:40.373Z,95
2017-06-18T14:16:40.091Z,85
2017-06-18T14:17:40.117Z,90
2017-06-18T14:18:40.149Z,90
2017-06-18T14:19:40.444Z,90
2017-06-18T14:20:39.923Z,90